createdAt,value
2022-11-28T00:01:24.518Z,15.20
2022-11-28T00:03:51.989Z,14.40
2022-11-28T00:06:19.521Z,14.95
2022-11-28T00:08:46.612Z,15.70
2022-11-28T00:11:17.957Z,14.65
2022-11-28T00:13:46.824Z,13.18
2022-11-28T00:16:21.610Z,11.95
2022-11-28T00:21:19.854Z,11.63
2022-11-28T00:23:47.896Z,12.82
2022-11-28T00:26:29.880Z,13.05
2022-11-28T00:28:58.373Z,12.80
2022-11-28T00:31:31.139Z,13.23
2022-11-28T00:33:58.331Z,13.50
2022-11-28T00:36:25.703Z,14.38
2022-11-28T00:38:53.020Z,12.27
2022-11-28T00:41:28.974Z,12.85
2022-11-28T00:43:56.292Z,11.30
2022-11-28T00:46:24.647Z,12.70
2022-11-28T00:48:51.936Z,13.00
2022-11-28T00:51:24.205Z,13.27
2022-11-28T00:53:53.136Z,13.63
2022-11-28T00:56:23.248Z,12.65
2022-11-28T00:58:50.272Z,13.55
2022-11-28T01:01:29.026Z,12.13
2022-11-28T01:03:58.379Z,12.07
2022-11-28T01:06:28.660Z,11.75
2022-11-28T01:08:57.716Z,13.40
2022-11-28T01:11:25.359Z,12.23
2022-11-28T01:13:55.529Z,12.40
2022-11-28T01:16:23.387Z,12.00
2022-11-28T01:18:50.468Z,12.50
2022-11-28T01:21:17.919Z,11.52
2022-11-28T01:23:44.703Z,11.57
2022-11-28T01:26:17.373Z,11.35
2022-11-28T01:28:44.742Z,11.75
2022-11-28T01:31:14.793Z,12.35
2022-11-28T01:33:41.962Z,12.50
2022-11-28T01:36:10.237Z,12.85
2022-11-28T01:38:37.381Z,12.15
2022-11-28T01:41:04.442Z,12.60
2022-11-28T01:43:31.668Z,12.07
2022-11-28T01:45:58.620Z,12.57
2022-11-28T01:48:29.609Z,11.13
2022-11-28T01:51:00.448Z,11.55
2022-11-28T01:53:30.624Z,11.75
2022-11-28T01:56:09.887Z,12.40
2022-11-28T01:58:42.138Z,12.32
2022-11-28T02:01:10.827Z,11.80
2022-11-28T02:03:45.069Z,11.30
2022-11-28T02:06:14.206Z,12.17
2022-11-28T02:08:41.064Z,12.60
2022-11-28T02:11:35.774Z,12.38
2022-11-28T02:14:21.086Z,11.90
2022-11-28T02:17:03.063Z,11.85
2022-11-28T02:20:05.771Z,11.35
2022-11-28T02:23:02.260Z,9.48
2022-11-28T02:25:49.379Z,10.50
2022-11-28T02:28:54.722Z,11.55
2022-11-28T02:31:29.611Z,10.88
2022-11-28T02:34:02.714Z,11.05
2022-11-28T02:36:40.702Z,9.77
2022-11-28T02:39:26.078Z,10.90
2022-11-28T02:42:09.001Z,11.35
2022-11-28T02:44:50.942Z,10.52
2022-11-28T02:47:27.373Z,10.80
2022-11-28T02:50:04.675Z,11.57
2022-11-28T02:52:46.894Z,10.77
2022-11-28T02:55:15.521Z,10.35
2022-11-28T02:57:48.017Z,12.00
2022-11-28T03:00:34.518Z,10.38
2022-11-28T03:03:22.986Z,11.90
2022-11-28T03:06:17.863Z,11.63
2022-11-28T03:09:29.645Z,11.93
2022-11-28T03:12:27.592Z,11.70
2022-11-28T03:15:00.722Z,11.18
2022-11-28T03:17:38.185Z,13.32
2022-11-28T03:20:35.839Z,10.40
2022-11-28T03:23:21.284Z,10.95
2022-11-28T03:25:57.847Z,11.05
2022-11-28T03:28:45.732Z,11.60
2022-11-28T03:31:19.911Z,12.43
2022-11-28T03:33:54.826Z,12.40
2022-11-28T03:36:32.957Z,11.77
2022-11-28T03:39:05.061Z,11.60
2022-11-28T03:41:49.817Z,12.13
2022-11-28T03:44:30.331Z,9.70
2022-11-28T03:47:01.048Z,11.38
2022-11-28T03:49:36.233Z,11.95
2022-11-28T03:52:05.860Z,11.43
2022-11-28T03:54:37.999Z,11.55
2022-11-28T03:57:10.966Z,12.57
2022-11-28T03:59:43.380Z,11.38
2022-11-28T04:02:16.341Z,11.35
2022-11-28T04:04:49.250Z,11.50
2022-11-28T04:07:41.300Z,11.88
2022-11-28T04:10:20.469Z,10.98
2022-11-28T04:13:05.568Z,11.48
2022-11-28T04:15:41.893Z,12.50
2022-11-28T04:18:17.579Z,11.77
2022-11-28T04:20:53.661Z,12.98
2022-11-28T04:23:22.283Z,11.32
2022-11-28T04:25:58.701Z,11.98
2022-11-28T04:28:30.128Z,11.73
2022-11-28T04:30:59.090Z,12.07
2022-11-28T04:33:29.289Z,11.77
2022-11-28T04:35:57.432Z,12.65
2022-11-28T04:38:26.503Z,11.45
2022-11-28T04:41:17.634Z,12.57
2022-11-28T04:44:00.705Z,12.60
2022-11-28T04:46:36.578Z,12.95
2022-11-28T04:49:03.576Z,12.30
2022-11-28T04:51:39.782Z,13.48
2022-11-28T04:54:15.370Z,11.63
2022-11-28T04:57:04.001Z,11.27
2022-11-28T04:59:32.455Z,10.77
2022-11-28T05:02:04.608Z,12.43
2022-11-28T05:04:34.860Z,10.73
2022-11-28T05:07:06.839Z,10.00
2022-11-28T05:09:34.291Z,10.10
2022-11-28T05:12:01.814Z,10.68
2022-11-28T05:14:28.588Z,9.88
2022-11-28T05:16:55.361Z,10.73
2022-11-28T05:19:22.598Z,10.52
2022-11-28T05:21:49.305Z,9.93
2022-11-28T05:24:16.024Z,10.90
2022-11-28T05:26:43.446Z,9.40
2022-11-28T05:29:10.251Z,9.27
2022-11-28T05:31:38.132Z,8.60
2022-11-28T05:34:05.391Z,8.52
2022-11-28T05:36:32.241Z,8.70
2022-11-28T05:38:59.061Z,8.90
2022-11-28T05:41:29.095Z,8.93
2022-11-28T05:43:57.304Z,8.80
2022-11-28T05:46:24.811Z,8.25
2022-11-28T05:48:51.964Z,7.57
2022-11-28T05:51:18.874Z,8.02
2022-11-28T05:53:45.794Z,7.22
2022-11-28T05:56:16.311Z,7.50
2022-11-28T05:58:44.073Z,7.03
2022-11-28T06:01:20.554Z,7.30
2022-11-28T06:03:48.045Z,7.35
2022-11-28T06:06:17.377Z,6.32
2022-11-28T06:08:45.122Z,6.75
2022-11-28T06:11:14.898Z,6.82
2022-11-28T06:13:43.311Z,6.20
2022-11-28T06:16:21.919Z,6.13
2022-11-28T06:18:52.344Z,6.10
2022-11-28T06:21:19.478Z,5.78
2022-11-28T06:23:47.037Z,6.75
2022-11-28T06:26:18.180Z,6.18
2022-11-28T06:28:45.315Z,6.22
2022-11-28T06:31:14.681Z,6.75
2022-11-28T06:33:42.567Z,6.60
2022-11-28T06:36:11.243Z,7.05
2022-11-28T06:38:38.171Z,6.65
2022-11-28T06:41:18.016Z,7.90
2022-11-28T06:43:45.334Z,6.30
2022-11-28T06:46:16.232Z,6.68
2022-11-28T06:48:44.462Z,6.28
2022-11-28T06:51:12.570Z,6.93
2022-11-28T06:53:39.534Z,6.97
2022-11-28T06:56:09.157Z,8.77
2022-11-28T06:58:36.987Z,8.07
2022-11-28T07:01:13.665Z,8.95
2022-11-28T07:03:40.938Z,9.80
2022-11-28T07:06:08.939Z,8.50
2022-11-28T07:08:39.377Z,8.75
2022-11-28T07:11:14.104Z,8.10
2022-11-28T07:13:43.013Z,8.07
2022-11-28T07:16:15.068Z,7.18
2022-11-28T07:18:42.100Z,7.35
2022-11-28T07:21:09.178Z,4.90
2022-11-28T07:23:36.313Z,5.32
2022-11-28T07:26:04.957Z,5.10
2022-11-28T07:28:32.721Z,6.63
2022-11-28T07:31:06.483Z,5.45
2022-11-28T07:33:34.849Z,5.20
2022-11-28T07:36:03.366Z,5.80
2022-11-28T07:38:30.316Z,5.47
2022-11-28T07:41:06.957Z,5.57
2022-11-28T07:43:35.355Z,6.03
2022-11-28T07:46:07.219Z,5.90
2022-11-28T07:48:35.288Z,5.57
2022-11-28T07:51:11.642Z,7.10
2022-11-28T07:53:39.680Z,5.68
2022-11-28T07:56:15.381Z,5.50
2022-11-28T07:58:43.751Z,6.45
2022-11-28T08:01:12.621Z,5.68
2022-11-28T08:03:39.447Z,5.88
2022-11-28T08:06:06.940Z,5.88
2022-11-28T08:08:34.611Z,7.22
2022-11-28T08:11:04.965Z,6.63
2022-11-28T08:13:31.985Z,5.65
2022-11-28T08:15:59.056Z,6.10
2022-11-28T08:18:26.001Z,6.32
2022-11-28T08:20:52.965Z,7.30
2022-11-28T08:23:19.738Z,6.15
2022-11-28T08:25:46.677Z,6.18
2022-11-28T08:28:13.671Z,6.20
2022-11-28T08:30:40.612Z,6.35
2022-11-28T08:33:07.494Z,5.97
2022-11-28T08:35:34.669Z,5.53
2022-11-28T08:38:02.222Z,5.38
2022-11-28T08:40:29.281Z,5.63
2022-11-28T08:42:56.146Z,5.40
2022-11-28T08:45:22.990Z,5.47
2022-11-28T08:47:49.892Z,5.50
2022-11-28T08:50:16.605Z,5.78
2022-11-28T08:52:43.464Z,6.43
2022-11-28T08:55:10.668Z,5.45
2022-11-28T08:57:37.362Z,5.80
2022-11-28T09:00:06.322Z,5.53
2022-11-28T09:02:36.252Z,5.13
2022-11-28T09:05:03.256Z,5.03
2022-11-28T09:07:30.241Z,5.57
2022-11-28T09:09:57.287Z,5.68
2022-11-28T09:12:26.258Z,5.65
2022-11-28T09:14:53.277Z,6.55
2022-11-28T09:17:20.142Z,6.00
2022-11-28T09:19:47.096Z,5.55
2022-11-28T09:22:13.964Z,6.35
2022-11-28T09:24:40.868Z,5.78
2022-11-28T09:27:07.920Z,5.43
2022-11-28T09:29:34.913Z,5.32
2022-11-28T09:32:01.637Z,5.53
2022-11-28T09:34:28.566Z,6.38
2022-11-28T09:36:55.465Z,5.70
2022-11-28T09:39:22.997Z,6.60
2022-11-28T09:41:50.007Z,5.68
2022-11-28T09:44:25.922Z,5.45
2022-11-28T09:46:59.418Z,5.70
2022-11-28T09:49:31.360Z,4.75
2022-11-28T09:52:42.890Z,5.85
2022-11-28T09:55:21.933Z,5.10
2022-11-28T09:57:51.398Z,5.85
2022-11-28T10:00:22.877Z,5.25
2022-11-28T10:03:18.188Z,5.93
2022-11-28T10:05:50.732Z,5.68
2022-11-28T10:08:37.048Z,5.85
2022-11-28T10:11:37.822Z,5.35
2022-11-28T10:14:32.453Z,5.30
2022-11-28T10:17:13.504Z,5.50
2022-11-28T10:19:55.363Z,5.68
2022-11-28T10:22:44.857Z,4.53
2022-11-28T10:25:20.062Z,4.95
2022-11-28T10:27:48.369Z,4.93
2022-11-28T10:30:21.049Z,5.45
2022-11-28T10:33:02.632Z,5.65
2022-11-28T10:35:53.568Z,4.20
2022-11-28T10:38:25.790Z,5.15
2022-11-28T10:41:21.720Z,4.00
2022-11-28T10:44:00.335Z,4.18
2022-11-28T10:46:52.264Z,4.13
2022-11-28T10:49:39.290Z,4.38
2022-11-28T10:52:22.693Z,4.55
2022-11-28T10:55:19.155Z,4.30
2022-11-28T10:58:10.629Z,4.30
2022-11-28T11:00:38.627Z,4.22
2022-11-28T11:03:10.545Z,3.75
2022-11-28T11:05:37.489Z,3.80
2022-11-28T11:08:10.427Z,4.20
2022-11-28T11:10:49.404Z,3.92
2022-11-28T11:13:27.343Z,4.15
2022-11-28T11:16:03.059Z,4.85
2022-11-28T11:18:50.241Z,5.15
2022-11-28T11:21:20.657Z,4.95
2022-11-28T11:23:49.220Z,4.50
2022-11-28T11:26:27.571Z,4.20
2022-11-28T11:28:54.733Z,4.55
2022-11-28T11:31:28.297Z,4.53
2022-11-28T11:34:04.980Z,4.20
2022-11-28T11:36:37.045Z,4.00
2022-11-28T11:39:10.727Z,4.60
2022-11-28T11:41:40.094Z,4.70
2022-11-28T11:44:16.070Z,4.75
2022-11-28T11:46:56.478Z,4.05
2022-11-28T11:49:44.148Z,4.82
2022-11-28T11:52:23.629Z,5.30
2022-11-28T11:55:04.920Z,4.45
2022-11-28T11:57:42.814Z,4.63
2022-11-28T12:00:09.645Z,3.97
2022-11-28T12:02:59.248Z,4.53
2022-11-28T12:05:41.788Z,4.57
2022-11-28T12:08:31.981Z,4.22
2022-11-28T12:14:21.851Z,4.65
2022-11-28T12:16:59.774Z,4.40
2022-11-28T12:19:50.933Z,4.65
2022-11-28T12:22:38.461Z,4.22
2022-11-28T12:25:17.158Z,4.47
2022-11-28T12:27:52.779Z,4.45
2022-11-28T12:30:34.430Z,4.20
2022-11-28T12:33:29.118Z,5.22
2022-11-28T12:36:12.284Z,5.20
2022-11-28T12:38:57.985Z,4.50
2022-11-28T12:42:01.964Z,5.15
2022-11-28T12:44:58.956Z,4.60
2022-11-28T12:47:59.382Z,4.72
2022-11-28T12:50:37.043Z,4.68
2022-11-28T12:53:30.801Z,5.00
2022-11-28T12:56:25.674Z,5.10
2022-11-28T12:59:21.591Z,5.10
2022-11-28T13:04:21.027Z,5.03
2022-11-28T13:07:14.169Z,5.65
2022-11-28T13:09:55.445Z,5.45
2022-11-28T13:12:28.070Z,5.32
2022-11-28T13:14:57.783Z,5.70
2022-11-28T13:18:09.446Z,5.68
2022-11-28T13:20:42.359Z,5.72
2022-11-28T13:23:31.202Z,5.80
2022-11-28T13:26:08.728Z,5.70
2022-11-28T13:28:52.520Z,5.95
2022-11-28T13:31:33.935Z,5.65
2022-11-28T13:34:01.192Z,6.10
2022-11-28T13:40:18.823Z,6.50
2022-11-28T13:43:06.985Z,5.82
2022-11-28T13:45:39.216Z,6.47
2022-11-28T13:48:57.444Z,6.68
2022-11-28T13:51:32.001Z,6.95
2022-11-28T13:54:18.225Z,6.90
2022-11-28T13:56:47.588Z,7.63
2022-11-28T13:59:21.800Z,6.63
2022-11-28T14:01:58.449Z,6.47
2022-11-28T14:04:27.008Z,7.32
2022-11-28T14:07:01.826Z,5.90
2022-11-28T14:12:09.738Z,6.05
2022-11-28T14:14:48.571Z,6.20
2022-11-28T14:17:38.674Z,5.57
2022-11-28T14:20:32.908Z,5.90
2022-11-28T14:23:08.798Z,6.22
2022-11-28T14:25:45.019Z,6.55
2022-11-28T14:28:33.571Z,6.53
2022-11-28T14:31:05.142Z,5.97
2022-11-28T14:33:39.735Z,6.55
2022-11-28T14:36:35.165Z,6.85
2022-11-28T14:39:22.161Z,6.85
2022-11-28T14:42:04.806Z,6.43
2022-11-28T14:44:50.643Z,6.97
2022-11-28T14:47:18.354Z,6.55
2022-11-28T14:49:45.154Z,6.75
2022-11-28T14:52:41.461Z,6.90
2022-11-28T14:55:08.745Z,6.60
2022-11-28T14:57:38.401Z,7.45
2022-11-28T15:00:08.385Z,6.70
2022-11-28T15:02:58.559Z,7.00
2022-11-28T15:05:39.263Z,7.13
2022-11-28T15:08:31.143Z,6.80
2022-11-28T15:11:04.026Z,6.47
2022-11-28T15:13:33.650Z,6.38
2022-11-28T15:16:05.574Z,7.32
2022-11-28T15:18:33.121Z,7.75
2022-11-28T15:21:07.373Z,6.97
2022-11-28T15:23:37.300Z,5.15
2022-11-28T15:26:05.112Z,7.05
2022-11-28T15:28:35.732Z,6.40
2022-11-28T15:31:07.488Z,6.53
2022-11-28T15:33:34.794Z,6.10
2022-11-28T15:36:25.664Z,6.40
2022-11-28T15:38:53.561Z,6.70
2022-11-28T15:41:23.059Z,6.20
2022-11-28T15:43:50.174Z,6.22
2022-11-28T15:46:21.519Z,5.72
2022-11-28T15:48:50.800Z,6.07
2022-11-28T15:51:29.653Z,5.95
2022-11-28T15:53:57.065Z,6.32
2022-11-28T15:56:23.953Z,5.68
2022-11-28T15:58:51.956Z,6.07
2022-11-28T16:01:28.605Z,5.97
2022-11-28T16:04:10.695Z,5.80
2022-11-28T16:06:41.455Z,6.03
2022-11-28T16:09:35.134Z,6.70
2022-11-28T16:12:04.303Z,6.00
2022-11-28T16:14:42.967Z,6.28
2022-11-28T16:17:31.989Z,5.78
2022-11-28T16:20:00.666Z,5.78
2022-11-28T16:22:34.193Z,6.15
2022-11-28T16:25:30.477Z,5.78
2022-11-28T16:27:57.862Z,5.78
2022-11-28T16:30:42.969Z,5.95
2022-11-28T16:33:35.842Z,6.68
2022-11-28T16:36:16.126Z,6.93
2022-11-28T16:38:44.122Z,6.03
2022-11-28T16:41:20.564Z,5.45
2022-11-28T16:43:52.353Z,6.63
2022-11-28T16:46:22.022Z,5.78
2022-11-28T16:48:54.272Z,6.95
2022-11-28T16:51:21.169Z,6.88
2022-11-28T16:53:50.615Z,6.00
2022-11-28T16:56:48.276Z,6.55
2022-11-28T16:59:20.244Z,7.10
2022-11-28T17:01:52.460Z,6.35
2022-11-28T17:04:30.439Z,6.50
2022-11-28T17:06:59.597Z,6.85
2022-11-28T17:09:26.263Z,6.57
2022-11-28T17:12:06.192Z,6.15
2022-11-28T17:14:33.981Z,6.72
2022-11-28T17:17:03.375Z,7.32
2022-11-28T17:19:30.164Z,7.15
2022-11-28T17:21:59.052Z,6.18
2022-11-28T17:24:29.132Z,6.22
2022-11-28T17:26:58.400Z,7.03
2022-11-28T17:29:25.544Z,6.68
2022-11-28T17:31:55.201Z,7.32
2022-11-28T17:34:24.879Z,7.20
2022-11-28T17:36:52.296Z,8.18
2022-11-28T17:39:20.278Z,7.78
2022-11-28T17:41:47.842Z,8.50
2022-11-28T17:44:24.910Z,7.55
2022-11-28T17:46:53.532Z,7.15
2022-11-28T17:49:21.286Z,7.82
2022-11-28T17:51:48.337Z,9.18
2022-11-28T17:54:18.251Z,8.40
2022-11-28T17:56:45.930Z,7.90
2022-11-28T17:59:13.845Z,8.27
2022-11-28T18:01:41.927Z,8.23
2022-11-28T18:04:08.687Z,8.60
2022-11-28T18:06:35.777Z,8.80
2022-11-28T18:09:10.183Z,7.88
2022-11-28T18:11:39.481Z,8.15
2022-11-28T18:14:06.593Z,8.73
2022-11-28T18:16:35.731Z,11.48
2022-11-28T18:19:02.965Z,8.48
2022-11-28T18:21:29.858Z,9.35
2022-11-28T18:23:57.197Z,9.07
2022-11-28T18:26:26.310Z,9.15
2022-11-28T18:28:54.456Z,10.43
2022-11-28T18:31:24.706Z,10.77
2022-11-28T18:33:54.278Z,10.77
2022-11-28T18:36:27.033Z,11.15
2022-11-28T18:39:02.941Z,10.10
2022-11-28T18:41:29.925Z,11.05
2022-11-28T18:44:02.117Z,10.60
2022-11-28T18:46:30.162Z,11.35
2022-11-28T18:48:57.834Z,11.32
2022-11-28T18:51:25.832Z,11.63
2022-11-28T18:53:54.598Z,11.25
2022-11-28T18:56:22.735Z,11.45
2022-11-28T18:58:52.057Z,11.82
2022-11-28T19:01:31.092Z,12.25
2022-11-28T19:04:01.349Z,11.60
2022-11-28T19:06:28.670Z,12.73
2022-11-28T19:08:58.019Z,11.68
2022-11-28T19:11:25.720Z,11.85
2022-11-28T19:13:53.727Z,12.95
2022-11-28T19:16:23.377Z,12.23
2022-11-28T19:18:50.106Z,12.82
2022-11-28T19:21:20.845Z,12.38
2022-11-28T19:23:48.858Z,12.45
2022-11-28T19:26:20.757Z,13.15
2022-11-28T19:28:47.791Z,13.15
2022-11-28T19:31:17.234Z,12.55
2022-11-28T19:33:45.352Z,12.57
2022-11-28T19:36:14.145Z,13.38
2022-11-28T19:38:42.037Z,13.48
2022-11-28T19:41:14.891Z,13.70
2022-11-28T19:43:42.105Z,13.85
2022-11-28T19:46:10.075Z,12.60
2022-11-28T19:48:38.247Z,12.52
2022-11-28T19:51:06.353Z,13.43
2022-11-28T19:53:36.020Z,13.80
2022-11-28T19:56:20.855Z,13.75
2022-11-28T19:58:48.131Z,10.30
2022-11-28T20:01:17.995Z,12.07
2022-11-28T20:03:47.835Z,13.55
2022-11-28T20:06:29.981Z,12.35
2022-11-28T20:09:00.933Z,13.48
2022-11-28T20:11:30.699Z,14.18
2022-11-28T20:13:59.963Z,12.63
2022-11-28T20:16:29.537Z,12.10
2022-11-28T20:18:56.573Z,14.30
2022-11-28T20:21:23.370Z,12.88
2022-11-28T20:23:52.865Z,13.30
2022-11-28T20:26:21.886Z,13.30
2022-11-28T20:28:59.573Z,12.07
2022-11-28T20:31:36.149Z,12.70
2022-11-28T20:34:03.737Z,12.98
2022-11-28T20:36:31.612Z,13.43
2022-11-28T20:38:59.558Z,11.80
2022-11-28T20:41:27.703Z,13.07
2022-11-28T20:43:54.879Z,13.10
2022-11-28T20:46:27.319Z,11.82
2022-11-28T20:48:57.748Z,13.93
2022-11-28T20:51:26.578Z,12.05
2022-11-28T20:53:55.181Z,11.60
2022-11-28T20:56:25.041Z,12.95
2022-11-28T20:58:52.585Z,12.07
2022-11-28T21:01:22.269Z,12.60
2022-11-28T21:03:49.743Z,11.30
2022-11-28T21:06:17.083Z,11.38
2022-11-28T21:08:44.087Z,11.55
2022-11-28T21:11:36.370Z,11.95
2022-11-28T21:14:05.175Z,11.75
2022-11-28T21:16:34.265Z,11.98
2022-11-28T21:19:07.810Z,12.18
2022-11-28T21:21:36.926Z,11.68
2022-11-28T21:24:06.766Z,13.32
2022-11-28T21:26:40.921Z,12.55
2022-11-28T21:29:09.757Z,11.65
2022-11-28T21:31:40.163Z,11.23
2022-11-28T21:34:07.104Z,11.90
2022-11-28T21:36:34.142Z,12.43
2022-11-28T21:39:01.705Z,12.63
2022-11-28T21:41:30.539Z,12.75
2022-11-28T21:43:57.943Z,13.13
2022-11-28T21:46:25.123Z,12.13
2022-11-28T21:48:52.290Z,12.45
2022-11-28T21:51:22.286Z,12.13
2022-11-28T21:53:49.684Z,12.50
2022-11-28T21:56:16.654Z,13.05
2022-11-28T21:58:43.861Z,11.95
2022-11-28T22:01:12.983Z,12.38
2022-11-28T22:03:41.306Z,12.43
2022-11-28T22:06:09.497Z,13.82
2022-11-28T22:08:36.413Z,12.85
2022-11-28T22:11:05.314Z,13.00
2022-11-28T22:13:32.990Z,13.02
2022-11-28T22:16:00.008Z,12.80
2022-11-28T22:18:29.385Z,12.15
2022-11-28T22:21:22.333Z,12.95
2022-11-28T22:23:51.537Z,13.20
2022-11-28T22:26:18.505Z,11.35
2022-11-28T22:28:50.417Z,12.18
2022-11-28T22:31:20.668Z,12.55
2022-11-28T22:33:49.452Z,12.80
2022-11-28T22:36:21.141Z,12.88
2022-11-28T22:38:49.497Z,12.18
2022-11-28T22:41:26.214Z,13.48
2022-11-28T22:44:00.493Z,13.32
2022-11-28T22:46:28.169Z,12.63
2022-11-28T22:48:55.095Z,11.93
2022-11-28T22:51:24.762Z,12.80
2022-11-28T22:53:55.857Z,12.15
2022-11-28T22:56:23.356Z,12.10
2022-11-28T22:58:50.860Z,12.65
2022-11-28T23:01:26.922Z,12.88
2022-11-28T23:03:54.762Z,12.85
2022-11-28T23:06:24.793Z,11.55
2022-11-28T23:08:51.897Z,11.75
2022-11-28T23:11:21.532Z,12.00
2022-11-28T23:13:50.059Z,11.35
2022-11-28T23:16:20.516Z,11.82
2022-11-28T23:18:49.567Z,11.75
2022-11-28T23:21:17.754Z,11.55
2022-11-28T23:23:46.148Z,12.30
2022-11-28T23:26:19.416Z,10.90
2022-11-28T23:28:46.684Z,10.98
2022-11-28T23:31:26.125Z,11.30
2022-11-28T23:33:53.770Z,10.95
2022-11-28T23:36:29.161Z,12.23
2022-11-28T23:38:58.135Z,12.13
2022-11-28T23:41:26.355Z,11.90
2022-11-28T23:43:53.320Z,11.20
2022-11-28T23:46:21.316Z,10.98
2022-11-28T23:48:48.843Z,10.52
2022-11-28T23:51:17.956Z,10.55
2022-11-28T23:53:44.923Z,9.20
2022-11-28T23:56:14.312Z,9.43
2022-11-28T23:58:41.838Z,8.50
